sensor_id;sensor_type;location;lat;lon;timestamp;P1;durP1;ratioP1;P2;durP2;ratioP2
69323;SDS011;56470;47.350;8.718;2024-03-25T00:01:12;3.13;;;1.73;;
69323;SDS011;56470;47.350;8.718;2024-03-25T00:03:38;5.65;;;1.40;;
69323;SDS011;56470;47.350;8.718;2024-03-25T00:06:03;4.63;;;2.40;;
69323;SDS011;56470;47.350;8.718;2024-03-25T00:08:32;5.07;;;1.60;;
69323;SDS011;56470;47.350;8.718;2024-03-25T00:11:00;3.33;;;1.70;;
69323;SDS011;56470;47.350;8.718;2024-03-25T00:13:25;3.42;;;1.98;;
69323;SDS011;56470;47.350;8.718;2024-03-25T00:15:53;3.97;;;1.73;;
69323;SDS011;56470;47.350;8.718;2024-03-25T00:18:19;3.07;;;2.00;;
69323;SDS011;56470;47.350;8.718;2024-03-25T00:20:44;5.20;;;1.63;;
69323;SDS011;56470;47.350;8.718;2024-03-25T00:23:10;6.57;;;2.00;;
69323;SDS011;56470;47.350;8.718;2024-03-25T00:25:36;4.33;;;1.73;;
69323;SDS011;56470;47.350;8.718;2024-03-25T00:28:02;3.17;;;2.05;;
69323;SDS011;56470;47.350;8.718;2024-03-25T00:30:27;3.77;;;1.77;;
69323;SDS011;56470;47.350;8.718;2024-03-25T00:32:53;3.23;;;1.40;;
69323;SDS011;56470;47.350;8.718;2024-03-25T00:35:18;3.13;;;1.60;;
69323;SDS011;56470;47.350;8.718;2024-03-25T00:37:43;3.97;;;1.97;;
69323;SDS011;56470;47.350;8.718;2024-03-25T00:40:12;3.38;;;1.45;;
69323;SDS011;56470;47.350;8.718;2024-03-25T00:42:38;3.63;;;1.70;;
69323;SDS011;56470;47.350;8.718;2024-03-25T00:45:03;4.30;;;1.63;;
69323;SDS011;56470;47.350;8.718;2024-03-25T00:47:30;3.42;;;1.60;;
69323;SDS011;56470;47.350;8.718;2024-03-25T00:49:56;3.90;;;1.40;;
69323;SDS011;56470;47.350;8.718;2024-03-25T00:52:22;6.00;;;2.17;;
69323;SDS011;56470;47.350;8.718;2024-03-25T00:54:47;5.63;;;1.67;;
69323;SDS011;56470;47.350;8.718;2024-03-25T00:57:12;3.58;;;1.60;;
69323;SDS011;56470;47.350;8.718;2024-03-25T00:59:38;4.27;;;2.00;;
69323;SDS011;56470;47.350;8.718;2024-03-25T01:02:04;3.35;;;1.58;;
69323;SDS011;56470;47.350;8.718;2024-03-25T01:04:29;5.03;;;1.77;;
69323;SDS011;56470;47.350;8.718;2024-03-25T01:06:55;4.13;;;1.80;;
69323;SDS011;56470;47.350;8.718;2024-03-25T01:09:20;5.63;;;1.77;;
69323;SDS011;56470;47.350;8.718;2024-03-25T01:11:46;3.13;;;1.50;;
69323;SDS011;56470;47.350;8.718;2024-03-25T01:14:12;4.97;;;1.70;;
69323;SDS011;56470;47.350;8.718;2024-03-25T01:16:37;3.55;;;1.38;;
69323;SDS011;56470;47.350;8.718;2024-03-25T01:19:03;4.50;;;1.30;;
69323;SDS011;56470;47.350;8.718;2024-03-25T01:21:28;4.27;;;1.70;;
69323;SDS011;56470;47.350;8.718;2024-03-25T01:23:55;2.75;;;1.92;;
69323;SDS011;56470;47.350;8.718;2024-03-25T01:26:20;3.47;;;2.27;;
69323;SDS011;56470;47.350;8.718;2024-03-25T01:28:47;3.40;;;2.03;;
69323;SDS011;56470;47.350;8.718;2024-03-25T01:31:12;4.25;;;1.63;;
69323;SDS011;56470;47.350;8.718;2024-03-25T01:33:38;4.03;;;1.33;;
69323;SDS011;56470;47.350;8.718;2024-03-25T01:36:04;3.90;;;1.60;;
69323;SDS011;56470;47.350;8.718;2024-03-25T01:38:29;3.00;;;1.83;;
69323;SDS011;56470;47.350;8.718;2024-03-25T01:40:54;1.93;;;1.27;;
69323;SDS011;56470;47.350;8.718;2024-03-25T01:43:21;3.88;;;2.20;;
69323;SDS011;56470;47.350;8.718;2024-03-25T01:45:47;2.63;;;1.93;;
69323;SDS011;56470;47.350;8.718;2024-03-25T01:48:13;2.42;;;1.80;;
69323;SDS011;56470;47.350;8.718;2024-03-25T01:50:40;3.40;;;2.37;;
69323;SDS011;56470;47.350;8.718;2024-03-25T01:53:08;3.22;;;2.10;;
69323;SDS011;56470;47.350;8.718;2024-03-25T01:55:34;3.35;;;1.65;;
69323;SDS011;56470;47.350;8.718;2024-03-25T01:58:01;3.73;;;2.40;;
69323;SDS011;56470;47.350;8.718;2024-03-25T02:00:27;3.80;;;2.22;;
69323;SDS011;56470;47.350;8.718;2024-03-25T02:02:53;2.85;;;2.00;;
69323;SDS011;56470;47.350;8.718;2024-03-25T02:05:19;2.80;;;1.70;;
69323;SDS011;56470;47.350;8.718;2024-03-25T02:07:45;3.10;;;1.45;;
69323;SDS011;56470;47.350;8.718;2024-03-25T02:10:11;3.92;;;2.10;;
69323;SDS011;56470;47.350;8.718;2024-03-25T02:12:43;3.22;;;1.52;;
69323;SDS011;56470;47.350;8.718;2024-03-25T02:15:09;2.10;;;1.90;;
69323;SDS011;56470;47.350;8.718;2024-03-25T02:17:35;3.53;;;1.30;;
69323;SDS011;56470;47.350;8.718;2024-03-25T02:20:01;2.63;;;1.85;;
69323;SDS011;56470;47.350;8.718;2024-03-25T02:22:30;4.07;;;1.73;;
69323;SDS011;56470;47.350;8.718;2024-03-25T02:24:56;3.75;;;2.47;;
69323;SDS011;56470;47.350;8.718;2024-03-25T02:27:23;3.40;;;1.70;;
69323;SDS011;56470;47.350;8.718;2024-03-25T02:29:49;4.85;;;2.03;;
69323;SDS011;56470;47.350;8.718;2024-03-25T02:32:15;2.30;;;1.50;;
69323;SDS011;56470;47.350;8.718;2024-03-25T02:34:41;4.40;;;1.87;;
69323;SDS011;56470;47.350;8.718;2024-03-25T02:37:11;3.72;;;2.42;;
69323;SDS011;56470;47.350;8.718;2024-03-25T02:39:37;2.97;;;1.70;;
69323;SDS011;56470;47.350;8.718;2024-03-25T02:42:03;3.17;;;2.00;;
69323;SDS011;56470;47.350;8.718;2024-03-25T02:44:29;2.97;;;1.67;;
69323;SDS011;56470;47.350;8.718;2024-03-25T02:46:55;3.20;;;1.80;;
69323;SDS011;56470;47.350;8.718;2024-03-25T02:49:22;3.95;;;2.30;;
69323;SDS011;56470;47.350;8.718;2024-03-25T02:51:47;3.17;;;2.20;;
69323;SDS011;56470;47.350;8.718;2024-03-25T02:54:13;4.63;;;2.60;;
69323;SDS011;56470;47.350;8.718;2024-03-25T02:56:39;5.13;;;2.22;;
69323;SDS011;56470;47.350;8.718;2024-03-25T02:59:05;3.70;;;2.00;;
69323;SDS011;56470;47.350;8.718;2024-03-25T03:01:30;4.37;;;1.80;;
69323;SDS011;56470;47.350;8.718;2024-03-25T03:03:56;4.57;;;2.30;;
69323;SDS011;56470;47.350;8.718;2024-03-25T03:06:24;4.30;;;1.80;;
69323;SDS011;56470;47.350;8.718;2024-03-25T03:08:49;5.17;;;2.37;;
69323;SDS011;56470;47.350;8.718;2024-03-25T03:11:15;3.93;;;2.20;;
69323;SDS011;56470;47.350;8.718;2024-03-25T03:13:40;5.13;;;2.07;;
69323;SDS011;56470;47.350;8.718;2024-03-25T03:16:05;4.25;;;1.90;;
69323;SDS011;56470;47.350;8.718;2024-03-25T03:18:31;5.03;;;2.10;;
69323;SDS011;56470;47.350;8.718;2024-03-25T03:20:56;3.33;;;2.27;;
69323;SDS011;56470;47.350;8.718;2024-03-25T03:23:22;4.17;;;2.00;;
69323;SDS011;56470;47.350;8.718;2024-03-25T03:25:47;3.60;;;2.00;;
69323;SDS011;56470;47.350;8.718;2024-03-25T03:28:13;4.82;;;2.05;;
69323;SDS011;56470;47.350;8.718;2024-03-25T03:30:40;4.70;;;2.27;;
69323;SDS011;56470;47.350;8.718;2024-03-25T03:33:05;3.15;;;2.05;;
69323;SDS011;56470;47.350;8.718;2024-03-25T03:35:32;4.07;;;2.37;;
69323;SDS011;56470;47.350;8.718;2024-03-25T03:38:00;9.07;;;2.80;;
69323;SDS011;56470;47.350;8.718;2024-03-25T03:40:26;4.73;;;2.53;;
69323;SDS011;56470;47.350;8.718;2024-03-25T03:42:51;4.47;;;2.33;;
69323;SDS011;56470;47.350;8.718;2024-03-25T03:45:16;3.80;;;2.03;;
69323;SDS011;56470;47.350;8.718;2024-03-25T03:47:42;4.63;;;2.37;;
69323;SDS011;56470;47.350;8.718;2024-03-25T03:50:07;3.63;;;2.13;;
69323;SDS011;56470;47.350;8.718;2024-03-25T03:52:33;4.00;;;2.30;;
69323;SDS011;56470;47.350;8.718;2024-03-25T03:54:58;3.80;;;2.17;;
69323;SDS011;56470;47.350;8.718;2024-03-25T03:57:24;5.20;;;2.60;;
69323;SDS011;56470;47.350;8.718;2024-03-25T03:59:51;6.35;;;2.45;;
69323;SDS011;56470;47.350;8.718;2024-03-25T04:02:16;4.73;;;2.33;;
69323;SDS011;56470;47.350;8.718;2024-03-25T04:04:42;4.75;;;2.22;;
69323;SDS011;56470;47.350;8.718;2024-03-25T04:07:07;5.23;;;2.10;;
69323;SDS011;56470;47.350;8.718;2024-03-25T04:09:32;4.07;;;2.13;;
69323;SDS011;56470;47.350;8.718;2024-03-25T04:11:58;7.57;;;2.33;;
69323;SDS011;56470;47.350;8.718;2024-03-25T04:14:23;4.83;;;2.30;;
69323;SDS011;56470;47.350;8.718;2024-03-25T04:16:48;6.82;;;2.55;;
69323;SDS011;56470;47.350;8.718;2024-03-25T04:19:16;4.73;;;2.13;;
69323;SDS011;56470;47.350;8.718;2024-03-25T04:21:41;3.78;;;2.10;;
69323;SDS011;56470;47.350;8.718;2024-03-25T04:24:07;4.67;;;2.47;;
69323;SDS011;56470;47.350;8.718;2024-03-25T04:26:33;5.97;;;2.25;;
69323;SDS011;56470;47.350;8.718;2024-03-25T04:28:59;3.70;;;2.43;;
69323;SDS011;56470;47.350;8.718;2024-03-25T04:31:24;4.37;;;2.40;;
69323;SDS011;56470;47.350;8.718;2024-03-25T04:33:49;4.47;;;2.67;;
69323;SDS011;56470;47.350;8.718;2024-03-25T04:36:15;5.10;;;2.30;;
69323;SDS011;56470;47.350;8.718;2024-03-25T04:38:40;4.25;;;2.58;;
69323;SDS011;56470;47.350;8.718;2024-03-25T04:41:06;4.53;;;2.73;;
69323;SDS011;56470;47.350;8.718;2024-03-25T04:43:31;4.33;;;2.53;;
69323;SDS011;56470;47.350;8.718;2024-03-25T04:46:00;3.80;;;2.13;;
69323;SDS011;56470;47.350;8.718;2024-03-25T04:48:25;3.95;;;2.22;;
69323;SDS011;56470;47.350;8.718;2024-03-25T04:50:51;3.57;;;2.60;;
69323;SDS011;56470;47.350;8.718;2024-03-25T04:53:16;5.60;;;2.67;;
69323;SDS011;56470;47.350;8.718;2024-03-25T04:55:41;4.03;;;2.00;;
69323;SDS011;56470;47.350;8.718;2024-03-25T04:58:07;4.57;;;2.67;;
69323;SDS011;56470;47.350;8.718;2024-03-25T05:00:32;4.43;;;2.53;;
69323;SDS011;56470;47.350;8.718;2024-03-25T05:02:57;7.90;;;2.90;;
69323;SDS011;56470;47.350;8.718;2024-03-25T05:05:23;4.43;;;2.60;;
69323;SDS011;56470;47.350;8.718;2024-03-25T05:07:49;4.00;;;2.00;;
69323;SDS011;56470;47.350;8.718;2024-03-25T05:10:14;4.97;;;2.65;;
69323;SDS011;56470;47.350;8.718;2024-03-25T05:12:40;3.70;;;2.27;;
69323;SDS011;56470;47.350;8.718;2024-03-25T05:15:05;3.50;;;2.30;;
69323;SDS011;56470;47.350;8.718;2024-03-25T05:17:31;6.00;;;2.10;;
69323;SDS011;56470;47.350;8.718;2024-03-25T05:19:56;4.10;;;2.17;;
69323;SDS011;56470;47.350;8.718;2024-03-25T05:22:21;3.90;;;1.88;;
69323;SDS011;56470;47.350;8.718;2024-03-25T05:24:47;4.97;;;2.37;;
69323;SDS011;56470;47.350;8.718;2024-03-25T05:27:12;5.07;;;2.33;;
69323;SDS011;56470;47.350;8.718;2024-03-25T05:29:37;4.60;;;2.27;;
69323;SDS011;56470;47.350;8.718;2024-03-25T05:32:03;4.07;;;2.43;;
69323;SDS011;56470;47.350;8.718;2024-03-25T05:34:29;5.28;;;2.70;;
69323;SDS011;56470;47.350;8.718;2024-03-25T05:36:55;4.40;;;2.55;;
69323;SDS011;56470;47.350;8.718;2024-03-25T05:39:20;5.67;;;2.73;;
69323;SDS011;56470;47.350;8.718;2024-03-25T05:41:47;4.22;;;2.70;;
69323;SDS011;56470;47.350;8.718;2024-03-25T05:44:12;4.28;;;3.00;;
69323;SDS011;56470;47.350;8.718;2024-03-25T05:46:39;4.23;;;2.47;;
69323;SDS011;56470;47.350;8.718;2024-03-25T05:49:04;5.93;;;2.70;;
69323;SDS011;56470;47.350;8.718;2024-03-25T05:51:30;4.17;;;2.47;;
69323;SDS011;56470;47.350;8.718;2024-03-25T05:53:58;5.82;;;2.38;;
69323;SDS011;56470;47.350;8.718;2024-03-25T05:56:24;4.55;;;2.88;;
69323;SDS011;56470;47.350;8.718;2024-03-25T05:58:55;5.55;;;2.20;;
69323;SDS011;56470;47.350;8.718;2024-03-25T06:01:21;4.77;;;2.73;;
69323;SDS011;56470;47.350;8.718;2024-03-25T06:03:46;2.90;;;1.80;;
69323;SDS011;56470;47.350;8.718;2024-03-25T06:06:11;4.43;;;2.37;;
69323;SDS011;56470;47.350;8.718;2024-03-25T06:08:37;4.60;;;2.47;;
69323;SDS011;56470;47.350;8.718;2024-03-25T06:11:02;4.67;;;2.37;;
69323;SDS011;56470;47.350;8.718;2024-03-25T06:13:28;4.50;;;2.47;;
69323;SDS011;56470;47.350;8.718;2024-03-25T06:15:53;6.20;;;3.40;;
69323;SDS011;56470;47.350;8.718;2024-03-25T06:18:18;4.13;;;2.80;;
69323;SDS011;56470;47.350;8.718;2024-03-25T06:20:44;4.50;;;3.10;;
69323;SDS011;56470;47.350;8.718;2024-03-25T06:23:09;4.93;;;2.60;;
69323;SDS011;56470;47.350;8.718;2024-03-25T06:25:35;4.70;;;2.80;;
69323;SDS011;56470;47.350;8.718;2024-03-25T06:28:02;5.60;;;3.40;;
69323;SDS011;56470;47.350;8.718;2024-03-25T06:30:27;6.63;;;3.20;;
69323;SDS011;56470;47.350;8.718;2024-03-25T06:33:11;7.38;;;3.05;;
69323;SDS011;56470;47.350;8.718;2024-03-25T06:36:09;4.68;;;2.25;;
69323;SDS011;56470;47.350;8.718;2024-03-25T06:38:34;4.17;;;2.50;;
69323;SDS011;56470;47.350;8.718;2024-03-25T06:40:59;4.87;;;3.30;;
69323;SDS011;56470;47.350;8.718;2024-03-25T06:43:25;3.90;;;2.47;;
69323;SDS011;56470;47.350;8.718;2024-03-25T06:45:50;3.33;;;2.10;;
69323;SDS011;56470;47.350;8.718;2024-03-25T06:48:15;3.10;;;2.07;;
69323;SDS011;56470;47.350;8.718;2024-03-25T06:50:40;4.80;;;2.60;;
69323;SDS011;56470;47.350;8.718;2024-03-25T06:53:06;6.25;;;2.60;;
69323;SDS011;56470;47.350;8.718;2024-03-25T06:55:31;4.17;;;2.73;;
69323;SDS011;56470;47.350;8.718;2024-03-25T06:57:56;6.47;;;2.83;;
69323;SDS011;56470;47.350;8.718;2024-03-25T07:00:22;5.07;;;2.47;;
69323;SDS011;56470;47.350;8.718;2024-03-25T07:02:47;4.43;;;2.57;;
69323;SDS011;56470;47.350;8.718;2024-03-25T07:05:13;3.38;;;2.00;;
69323;SDS011;56470;47.350;8.718;2024-03-25T07:07:38;3.80;;;2.47;;
69323;SDS011;56470;47.350;8.718;2024-03-25T07:10:07;5.00;;;2.50;;
69323;SDS011;56470;47.350;8.718;2024-03-25T07:12:33;4.00;;;2.10;;
69323;SDS011;56470;47.350;8.718;2024-03-25T07:14:59;4.25;;;2.17;;
69323;SDS011;56470;47.350;8.718;2024-03-25T07:17:24;5.00;;;2.57;;
69323;SDS011;56470;47.350;8.718;2024-03-25T07:19:50;5.03;;;2.13;;
69323;SDS011;56470;47.350;8.718;2024-03-25T07:22:16;10.80;;;2.87;;
69323;SDS011;56470;47.350;8.718;2024-03-25T07:24:42;5.20;;;3.25;;
69323;SDS011;56470;47.350;8.718;2024-03-25T07:27:07;5.57;;;2.07;;
69323;SDS011;56470;47.350;8.718;2024-03-25T07:29:34;5.25;;;1.95;;
69323;SDS011;56470;47.350;8.718;2024-03-25T07:32:00;6.40;;;2.23;;
69323;SDS011;56470;47.350;8.718;2024-03-25T07:34:25;4.53;;;2.07;;
69323;SDS011;56470;47.350;8.718;2024-03-25T07:36:51;5.07;;;2.40;;
69323;SDS011;56470;47.350;8.718;2024-03-25T07:39:17;3.10;;;1.97;;
69323;SDS011;56470;47.350;8.718;2024-03-25T07:41:42;3.80;;;2.10;;
69323;SDS011;56470;47.350;8.718;2024-03-25T07:44:07;3.67;;;1.40;;
69323;SDS011;56470;47.350;8.718;2024-03-25T07:46:33;5.22;;;1.98;;
69323;SDS011;56470;47.350;8.718;2024-03-25T07:48:58;3.77;;;1.83;;
69323;SDS011;56470;47.350;8.718;2024-03-25T07:51:23;3.33;;;2.10;;
69323;SDS011;56470;47.350;8.718;2024-03-25T07:53:49;3.07;;;1.70;;
69323;SDS011;56470;47.350;8.718;2024-03-25T07:56:17;2.80;;;1.80;;
69323;SDS011;56470;47.350;8.718;2024-03-25T07:58:43;4.45;;;2.00;;
69323;SDS011;56470;47.350;8.718;2024-03-25T08:01:08;3.20;;;1.90;;
69323;SDS011;56470;47.350;8.718;2024-03-25T08:03:33;2.63;;;1.60;;
69323;SDS011;56470;47.350;8.718;2024-03-25T08:05:59;3.20;;;1.60;;
69323;SDS011;56470;47.350;8.718;2024-03-25T08:08:24;4.07;;;1.97;;
69323;SDS011;56470;47.350;8.718;2024-03-25T08:10:50;4.13;;;2.07;;
69323;SDS011;56470;47.350;8.718;2024-03-25T08:13:17;5.07;;;2.10;;
69323;SDS011;56470;47.350;8.718;2024-03-25T08:15:42;3.67;;;1.63;;
69323;SDS011;56470;47.350;8.718;2024-03-25T08:18:08;4.17;;;2.07;;
69323;SDS011;56470;47.350;8.718;2024-03-25T08:20:33;5.33;;;2.27;;
69323;SDS011;56470;47.350;8.718;2024-03-25T08:22:58;5.37;;;2.17;;
69323;SDS011;56470;47.350;8.718;2024-03-25T08:25:24;3.87;;;1.83;;
69323;SDS011;56470;47.350;8.718;2024-03-25T08:27:49;3.60;;;2.00;;
69323;SDS011;56470;47.350;8.718;2024-03-25T08:30:14;6.82;;;2.03;;
69323;SDS011;56470;47.350;8.718;2024-03-25T08:32:40;4.50;;;2.33;;
69323;SDS011;56470;47.350;8.718;2024-03-25T08:35:05;3.50;;;1.73;;
69323;SDS011;56470;47.350;8.718;2024-03-25T08:37:31;4.18;;;2.10;;
69323;SDS011;56470;47.350;8.718;2024-03-25T08:39:56;3.70;;;1.80;;
69323;SDS011;56470;47.350;8.718;2024-03-25T08:42:22;5.93;;;2.07;;
69323;SDS011;56470;47.350;8.718;2024-03-25T08:44:47;3.43;;;1.97;;
69323;SDS011;56470;47.350;8.718;2024-03-25T08:47:12;3.63;;;2.07;;
69323;SDS011;56470;47.350;8.718;2024-03-25T08:49:38;3.93;;;1.90;;
69323;SDS011;56470;47.350;8.718;2024-03-25T08:52:03;3.72;;;1.45;;
69323;SDS011;56470;47.350;8.718;2024-03-25T08:54:29;3.40;;;1.57;;
69323;SDS011;56470;47.350;8.718;2024-03-25T08:56:54;3.73;;;1.73;;
69323;SDS011;56470;47.350;8.718;2024-03-25T08:59:22;4.47;;;1.40;;
69323;SDS011;56470;47.350;8.718;2024-03-25T09:02:14;3.78;;;1.88;;
69323;SDS011;56470;47.350;8.718;2024-03-25T09:04:47;2.85;;;1.70;;
69323;SDS011;56470;47.350;8.718;2024-03-25T09:07:13;2.77;;;1.70;;
69323;SDS011;56470;47.350;8.718;2024-03-25T09:09:39;3.65;;;1.75;;
69323;SDS011;56470;47.350;8.718;2024-03-25T09:12:23;3.17;;;1.60;;
69323;SDS011;56470;47.350;8.718;2024-03-25T09:14:48;3.93;;;1.77;;
69323;SDS011;56470;47.350;8.718;2024-03-25T09:17:14;5.30;;;1.80;;
69323;SDS011;56470;47.350;8.718;2024-03-25T09:19:39;4.80;;;2.00;;
69323;SDS011;56470;47.350;8.718;2024-03-25T09:22:05;4.25;;;1.92;;
69323;SDS011;56470;47.350;8.718;2024-03-25T09:24:30;4.00;;;1.80;;
69323;SDS011;56470;47.350;8.718;2024-03-25T09:26:55;3.10;;;1.67;;
69323;SDS011;56470;47.350;8.718;2024-03-25T09:29:21;5.93;;;1.83;;
69323;SDS011;56470;47.350;8.718;2024-03-25T09:31:46;4.93;;;1.70;;
69323;SDS011;56470;47.350;8.718;2024-03-25T09:34:11;4.07;;;1.93;;
69323;SDS011;56470;47.350;8.718;2024-03-25T09:36:36;4.20;;;1.97;;
69323;SDS011;56470;47.350;8.718;2024-03-25T09:39:02;3.30;;;1.73;;
69323;SDS011;56470;47.350;8.718;2024-03-25T09:41:29;4.87;;;1.80;;
69323;SDS011;56470;47.350;8.718;2024-03-25T09:43:59;4.82;;;1.88;;
69323;SDS011;56470;47.350;8.718;2024-03-25T09:46:25;6.33;;;2.27;;
69323;SDS011;56470;47.350;8.718;2024-03-25T09:48:54;3.63;;;1.40;;
69323;SDS011;56470;47.350;8.718;2024-03-25T09:51:20;5.93;;;2.15;;
69323;SDS011;56470;47.350;8.718;2024-03-25T09:53:45;4.95;;;2.00;;
69323;SDS011;56470;47.350;8.718;2024-03-25T09:56:11;5.57;;;2.13;;
69323;SDS011;56470;47.350;8.718;2024-03-25T09:58:40;3.05;;;1.67;;
69323;SDS011;56470;47.350;8.718;2024-03-25T10:01:08;4.18;;;1.80;;
69323;SDS011;56470;47.350;8.718;2024-03-25T10:03:34;4.43;;;1.53;;
69323;SDS011;56470;47.350;8.718;2024-03-25T10:05:59;3.80;;;1.70;;
69323;SDS011;56470;47.350;8.718;2024-03-25T10:08:25;4.20;;;1.57;;
69323;SDS011;56470;47.350;8.718;2024-03-25T10:10:51;2.70;;;1.80;;
69323;SDS011;56470;47.350;8.718;2024-03-25T10:13:17;4.50;;;1.70;;
69323;SDS011;56470;47.350;8.718;2024-03-25T10:15:42;2.60;;;1.23;;
69323;SDS011;56470;47.350;8.718;2024-03-25T10:18:09;4.13;;;2.20;;
69323;SDS011;56470;47.350;8.718;2024-03-25T10:20:36;1.85;;;1.27;;
69323;SDS011;56470;47.350;8.718;2024-03-25T10:23:02;3.03;;;1.73;;
69323;SDS011;56470;47.350;8.718;2024-03-25T10:25:30;2.22;;;1.73;;
69323;SDS011;56470;47.350;8.718;2024-03-25T10:27:56;3.35;;;1.63;;
69323;SDS011;56470;47.350;8.718;2024-03-25T10:30:25;2.60;;;1.45;;
69323;SDS011;56470;47.350;8.718;2024-03-25T10:33:01;3.70;;;1.43;;
69323;SDS011;56470;47.350;8.718;2024-03-25T10:35:27;2.50;;;1.30;;
69323;SDS011;56470;47.350;8.718;2024-03-25T10:38:00;3.70;;;1.67;;
69323;SDS011;56470;47.350;8.718;2024-03-25T10:40:30;3.20;;;1.52;;
69323;SDS011;56470;47.350;8.718;2024-03-25T10:43:02;6.20;;;1.88;;
69323;SDS011;56470;47.350;8.718;2024-03-25T10:45:32;3.47;;;1.73;;
69323;SDS011;56470;47.350;8.718;2024-03-25T10:48:21;2.55;;;1.38;;
69323;SDS011;56470;47.350;8.718;2024-03-25T10:51:00;4.40;;;1.88;;
69323;SDS011;56470;47.350;8.718;2024-03-25T10:53:34;2.97;;;1.60;;
69323;SDS011;56470;47.350;8.718;2024-03-25T10:56:01;3.08;;;2.10;;
69323;SDS011;56470;47.350;8.718;2024-03-25T10:58:30;4.20;;;1.97;;
69323;SDS011;56470;47.350;8.718;2024-03-25T11:03:36;4.20;;;1.55;;
69323;SDS011;56470;47.350;8.718;2024-03-25T11:06:02;4.68;;;1.73;;
69323;SDS011;56470;47.350;8.718;2024-03-25T11:08:34;2.33;;;1.70;;
69323;SDS011;56470;47.350;8.718;2024-03-25T11:11:03;3.77;;;2.30;;
69323;SDS011;56470;47.350;8.718;2024-03-25T11:13:30;3.40;;;2.00;;
69323;SDS011;56470;47.350;8.718;2024-03-25T11:15:56;4.82;;;1.88;;
69323;SDS011;56470;47.350;8.718;2024-03-25T11:18:24;3.67;;;2.00;;
69323;SDS011;56470;47.350;8.718;2024-03-25T11:21:00;3.60;;;1.95;;
69323;SDS011;56470;47.350;8.718;2024-03-25T11:23:43;3.37;;;2.17;;
69323;SDS011;56470;47.350;8.718;2024-03-25T11:26:22;4.07;;;1.73;;
69323;SDS011;56470;47.350;8.718;2024-03-25T11:28:49;4.15;;;2.10;;
69323;SDS011;56470;47.350;8.718;2024-03-25T11:31:16;3.78;;;2.10;;
69323;SDS011;56470;47.350;8.718;2024-03-25T11:33:44;2.60;;;1.73;;
69323;SDS011;56470;47.350;8.718;2024-03-25T11:36:09;1.67;;;1.20;;
69323;SDS011;56470;47.350;8.718;2024-03-25T11:38:35;4.83;;;2.30;;
69323;SDS011;56470;47.350;8.718;2024-03-25T11:41:12;3.88;;;2.05;;
69323;SDS011;56470;47.350;8.718;2024-03-25T11:46:27;3.97;;;1.88;;
69323;SDS011;56470;47.350;8.718;2024-03-25T11:49:07;3.80;;;2.13;;
69323;SDS011;56470;47.350;8.718;2024-03-25T11:51:43;4.22;;;2.00;;
69323;SDS011;56470;47.350;8.718;2024-03-25T11:54:13;2.80;;;1.60;;
69323;SDS011;56470;47.350;8.718;2024-03-25T11:56:43;3.65;;;1.80;;
69323;SDS011;56470;47.350;8.718;2024-03-25T11:59:25;2.42;;;1.45;;
69323;SDS011;56470;47.350;8.718;2024-03-25T12:01:50;3.15;;;1.98;;
69323;SDS011;56470;47.350;8.718;2024-03-25T12:04:17;2.57;;;1.57;;
69323;SDS011;56470;47.350;8.718;2024-03-25T12:06:43;4.40;;;2.00;;
69323;SDS011;56470;47.350;8.718;2024-03-25T12:09:10;3.35;;;1.73;;
69323;SDS011;56470;47.350;8.718;2024-03-25T12:11:54;3.38;;;2.08;;
69323;SDS011;56470;47.350;8.718;2024-03-25T12:14:21;3.40;;;1.40;;
69323;SDS011;56470;47.350;8.718;2024-03-25T12:16:47;3.17;;;1.80;;
69323;SDS011;56470;47.350;8.718;2024-03-25T12:19:15;3.60;;;1.92;;
69323;SDS011;56470;47.350;8.718;2024-03-25T12:21:40;1.42;;;1.13;;
69323;SDS011;56470;47.350;8.718;2024-03-25T12:24:06;3.73;;;1.77;;
69323;SDS011;56470;47.350;8.718;2024-03-25T12:26:34;4.13;;;1.42;;
69323;SDS011;56470;47.350;8.718;2024-03-25T12:28:59;5.03;;;1.77;;
69323;SDS011;56470;47.350;8.718;2024-03-25T12:31:25;3.60;;;1.90;;
69323;SDS011;56470;47.350;8.718;2024-03-25T12:33:50;2.50;;;1.73;;
69323;SDS011;56470;47.350;8.718;2024-03-25T12:36:16;1.80;;;1.43;;
69323;SDS011;56470;47.350;8.718;2024-03-25T12:38:41;2.88;;;1.70;;
69323;SDS011;56470;47.350;8.718;2024-03-25T12:41:08;3.05;;;1.60;;
69323;SDS011;56470;47.350;8.718;2024-03-25T12:43:35;2.83;;;1.53;;
69323;SDS011;56470;47.350;8.718;2024-03-25T12:46:02;5.38;;;1.70;;
69323;SDS011;56470;47.350;8.718;2024-03-25T12:48:30;2.22;;;1.60;;
69323;SDS011;56470;47.350;8.718;2024-03-25T12:50:58;2.60;;;1.60;;
69323;SDS011;56470;47.350;8.718;2024-03-25T12:53:23;3.23;;;1.47;;
69323;SDS011;56470;47.350;8.718;2024-03-25T12:55:48;2.93;;;1.77;;
69323;SDS011;56470;47.350;8.718;2024-03-25T12:58:14;3.57;;;1.40;;
69323;SDS011;56470;47.350;8.718;2024-03-25T13:00:39;3.55;;;1.23;;
69323;SDS011;56470;47.350;8.718;2024-03-25T13:03:05;3.72;;;1.98;;
69323;SDS011;56470;47.350;8.718;2024-03-25T13:05:33;3.57;;;1.47;;
69323;SDS011;56470;47.350;8.718;2024-03-25T13:07:59;3.45;;;1.70;;
69323;SDS011;56470;47.350;8.718;2024-03-25T13:10:27;3.25;;;1.83;;
69323;SDS011;56470;47.350;8.718;2024-03-25T13:12:54;4.68;;;1.83;;
69323;SDS011;56470;47.350;8.718;2024-03-25T13:15:20;2.80;;;1.58;;
69323;SDS011;56470;47.350;8.718;2024-03-25T13:17:48;4.83;;;2.07;;
69323;SDS011;56470;47.350;8.718;2024-03-25T13:20:13;2.53;;;1.40;;
69323;SDS011;56470;47.350;8.718;2024-03-25T13:22:39;3.57;;;1.53;;
69323;SDS011;56470;47.350;8.718;2024-03-25T13:25:07;3.60;;;1.60;;
69323;SDS011;56470;47.350;8.718;2024-03-25T13:27:47;2.35;;;1.80;;
69323;SDS011;56470;47.350;8.718;2024-03-25T13:30:15;3.30;;;1.30;;
69323;SDS011;56470;47.350;8.718;2024-03-25T13:32:41;2.28;;;1.50;;
69323;SDS011;56470;47.350;8.718;2024-03-25T13:35:06;3.23;;;1.27;;
69323;SDS011;56470;47.350;8.718;2024-03-25T13:37:34;2.60;;;1.47;;
69323;SDS011;56470;47.350;8.718;2024-03-25T13:40:20;3.15;;;1.30;;
69323;SDS011;56470;47.350;8.718;2024-03-25T13:42:45;2.53;;;1.57;;
69323;SDS011;56470;47.350;8.718;2024-03-25T13:45:21;4.43;;;1.58;;
69323;SDS011;56470;47.350;8.718;2024-03-25T13:50:53;3.70;;;2.00;;
69323;SDS011;56470;47.350;8.718;2024-03-25T13:53:21;4.82;;;1.65;;
69323;SDS011;56470;47.350;8.718;2024-03-25T13:55:59;4.80;;;1.23;;
69323;SDS011;56470;47.350;8.718;2024-03-25T14:02:04;4.03;;;1.42;;
69323;SDS011;56470;47.350;8.718;2024-03-25T14:05:08;2.10;;;1.52;;
69323;SDS011;56470;47.350;8.718;2024-03-25T14:19:00;2.75;;;1.63;;
69323;SDS011;56470;47.350;8.718;2024-03-25T14:22:23;5.95;;;1.52;;
69323;SDS011;56470;47.350;8.718;2024-03-25T14:54:54;2.67;;;1.63;;
69323;SDS011;56470;47.350;8.718;2024-03-25T15:01:33;4.78;;;1.95;;
69323;SDS011;56470;47.350;8.718;2024-03-25T15:04:41;2.37;;;1.17;;
69323;SDS011;56470;47.350;8.718;2024-03-25T15:07:21;2.80;;;1.50;;
69323;SDS011;56470;47.350;8.718;2024-03-25T15:10:00;3.45;;;1.88;;
69323;SDS011;56470;47.350;8.718;2024-03-25T15:19:24;2.50;;;1.30;;
69323;SDS011;56470;47.350;8.718;2024-03-25T15:25:56;2.42;;;1.52;;
69323;SDS011;56470;47.350;8.718;2024-03-25T15:38:18;2.22;;;1.33;;
69323;SDS011;56470;47.350;8.718;2024-03-25T15:42:00;3.05;;;1.50;;
69323;SDS011;56470;47.350;8.718;2024-03-25T15:48:21;4.95;;;1.67;;
69323;SDS011;56470;47.350;8.718;2024-03-25T15:55:12;3.70;;;1.40;;
69323;SDS011;56470;47.350;8.718;2024-03-25T15:58:41;3.65;;;1.50;;
69323;SDS011;56470;47.350;8.718;2024-03-25T16:05:09;2.80;;;1.80;;
69323;SDS011;56470;47.350;8.718;2024-03-25T16:07:54;4.03;;;1.17;;
69323;SDS011;56470;47.350;8.718;2024-03-25T16:13:51;3.53;;;1.50;;
69323;SDS011;56470;47.350;8.718;2024-03-25T16:16:32;2.80;;;1.52;;
69323;SDS011;56470;47.350;8.718;2024-03-25T16:49:20;2.92;;;1.30;;
69323;SDS011;56470;47.350;8.718;2024-03-25T16:52:04;2.57;;;1.27;;
69323;SDS011;56470;47.350;8.718;2024-03-25T16:54:40;2.92;;;1.70;;
69323;SDS011;56470;47.350;8.718;2024-03-25T16:57:06;2.30;;;1.30;;